| time (UTC) | temp F | wind direction | speed MPH | gust MPH | rain 1hr in | rain 24hr in | rain mn in | humidity % | barometer mb |
| 20260906114817 | 78 | 345 | 0.0 | 2.0 | 0.00 | 0.00 | 0.00 | 88 | 1011.7 |
| 20260906114610 | 77 | 287 | 0.0 | 0.0 | 0.00 | 0.00 | 0.00 | 89 | 1010.8 |
| 20260906114317 | 78 | 345 | 0.0 | 0.0 | 0.00 | 0.00 | 0.00 | 88 | 1011.6 |
| 20260906113816 | 78 | 345 | 0.0 | 0.0 | 0.00 | 0.00 | 0.00 | 88 | 1011.5 |
| 20260906113315 | 78 | 345 | 0.0 | 1.0 | 0.00 | 0.00 | 0.00 | 88 | 1011.5 |
| 20260906113057 | 77 | 287 | 0.0 | 1.0 | 0.00 | 0.00 | 0.00 | 89 | 1010.6 |
| 20260906112804 | 78 | 345 | 0.0 | 1.0 | 0.00 | 0.00 | 0.00 | 88 | 1011.4 |
| 20260906112257 | 78 | 345 | 0.0 | 2.0 | 0.00 | 0.00 | 0.00 | 88 | 1011.1 |
| 20260906111759 | 78 | 345 | 0.0 | 2.0 | 0.00 | 0.00 | 0.00 | 88 | 1011.1 |
| 20260906111550 | 77 | 287 | 0.0 | 4.0 | 0.00 | 0.00 | 0.00 | 89 | 1010.2 |
| 20260906111250 | 78 | 345 | 1.0 | 4.0 | 0.00 | 0.00 | 0.00 | 88 | 1011.0 |
| 20260906110738 | 78 | 345 | 1.0 | 4.0 | 0.00 | 0.00 | 0.00 | 87 | 1010.9 |
| 20260906110225 | 78 | 348 | 1.0 | 3.0 | 0.00 | 0.00 | 0.00 | 87 | 1010.8 |
| 20260906110049 | 77 | 290 | 1.0 | 3.0 | 0.00 | 0.00 | 0.00 | 88 | 1010.0 |
| 20260906105713 | 78 | 349 | 1.0 | 3.0 | 0.00 | 0.00 | 0.00 | 87 | 1010.8 |
| 20260906105213 | 78 | 349 | 0.0 | 3.0 | 0.00 | 0.00 | 0.00 | 87 | 1010.8 |
| 20260906104710 | 78 | 349 | 1.0 | 3.0 | 0.00 | 0.00 | 0.00 | 87 | 1010.6 |
| 20260906104548 | 78 | 291 | 0.0 | 3.0 | 0.00 | 0.00 | 0.00 | 88 | 1009.7 |
| 20260906104206 | 78 | 349 | 0.0 | 3.0 | 0.00 | 0.00 | 0.00 | 87 | 1010.6 |
| 20260906103719 | 78 | 345 | 0.0 | 0.0 | 0.00 | 0.00 | 0.00 | 87 | 1010.4 |
| 20260906103207 | 78 | 345 | 0.0 | 0.0 | 0.00 | 0.00 | 0.00 | 87 | 1010.4 |
| 20260906103048 | 77 | 287 | 0.0 | 0.0 | 0.00 | 0.00 | 0.00 | 88 | 1009.4 |
| 20260906102710 | 78 | 345 | 0.0 | 3.0 | 0.00 | 0.00 | 0.00 | 87 | 1010.3 |
| 20260906102157 | 78 | 345 | 1.0 | 4.0 | 0.00 | 0.00 | 0.00 | 87 | 1010.4 |
| 20260906101648 | 78 | 340 | 2.0 | 4.0 | 0.00 | 0.00 | 0.00 | 87 | 1010.4 |
| 20260906101546 | 78 | 282 | 0.0 | 4.0 | 0.00 | 0.00 | 0.00 | 88 | 1009.4 |
| 20260906101155 | 78 | 348 | 1.0 | 4.0 | 0.00 | 0.00 | 0.00 | 87 | 1010.2 |
| 20260906100631 | 78 | 349 | 0.0 | 4.0 | 0.00 | 0.00 | 0.00 | 87 | 1010.2 |
| 20260906100125 | 78 | 349 | 0.0 | 4.0 | 0.00 | 0.00 | 0.00 | 87 | 1010.2 |
| 20260906100045 | 78 | 285 | 0.0 | 0.0 | 0.00 | 0.00 | 0.00 | 88 | 1009.3 |
| 20260906095123 | 78 | 344 | 0.0 | 2.0 | 0.00 | 0.00 | 0.00 | 87 | 1010.2 |
| 20260906094613 | 78 | 343 | 0.0 | 2.0 | 0.00 | 0.00 | 0.00 | 87 | 1010.1 |
| 20260906094544 | 78 | 285 | 0.0 | 2.0 | 0.00 | 0.00 | 0.00 | 88 | 1009.3 |
| 20260906094106 | 78 | 343 | 0.0 | 1.0 | 0.00 | 0.00 | 0.00 | 87 | 1010.1 |
| 20260906093554 | 78 | 343 | 0.0 | 1.0 | 0.00 | 0.00 | 0.00 | 87 | 1010.1 |
| 20260906093047 | 78 | 344 | 0.0 | 1.0 | 0.00 | 0.00 | 0.00 | 87 | 1010.1 |
| 20260906093044 | 78 | 286 | 0.0 | 1.0 | 0.00 | 0.00 | 0.00 | 88 | 1009.3 |
| 20260906092545 | 78 | 344 | 0.0 | 1.0 | 0.00 | 0.00 | 0.00 | 87 | 1010.2 |
| 20260906092047 | 78 | 344 | 0.0 | 1.0 | 0.00 | 0.00 | 0.00 | 87 | 1010.1 |
| 20260906091546 | 78 | 344 | 0.0 | 1.0 | 0.00 | 0.00 | 0.00 | 86 | 1010.1 |
| 20260906091542 | 78 | 286 | 0.0 | 1.0 | 0.00 | 0.00 | 0.00 | 87 | 1009.3 |
| 20260906090526 | 78 | 344 | 0.0 | 3.0 | 0.00 | 0.00 | 0.00 | 86 | 1010.1 |
| 20260906090043 | 78 | 286 | 0.0 | 3.0 | 0.00 | 0.00 | 0.00 | 87 | 1009.4 |
| 20260906090026 | 79 | 344 | 0.0 | 3.0 | 0.00 | 0.00 | 0.00 | 86 | 1010.2 |
| 20260906085525 | 79 | 343 | 0.0 | 3.0 | 0.00 | 0.00 | 0.00 | 86 | 1010.2 |
| 20260906085024 | 79 | 343 | 0.0 | 2.0 | 0.00 | 0.00 | 0.00 | 86 | 1010.1 |
| 20260906084541 | 78 | 285 | 0.0 | 2.0 | 0.00 | 0.00 | 0.00 | 87 | 1009.3 |
| 20260906084513 | 79 | 343 | 0.0 | 2.0 | 0.00 | 0.00 | 0.00 | 86 | 1010.2 |
| 20260906084003 | 79 | 343 | 0.0 | 2.0 | 0.00 | 0.00 | 0.00 | 86 | 1010.1 |
| 20260906083458 | 79 | 343 | 0.0 | 2.0 | 0.00 | 0.00 | 0.00 | 86 | 1010.1 |
| 20260906083041 | 78 | 285 | 0.0 | 2.0 | 0.00 | 0.00 | 0.00 | 87 | 1009.3 |
| 20260906082946 | 79 | 343 | 0.0 | 2.0 | 0.00 | 0.00 | 0.00 | 86 | 1010.1 |
| 20260906082437 | 79 | 343 | 0.0 | 2.0 | 0.00 | 0.00 | 0.00 | 86 | 1010.1 |
| 20260906081931 | 79 | 342 | 0.0 | 0.0 | 0.00 | 0.00 | 0.00 | 86 | 1010.1 |
| 20260906081544 | 79 | 284 | 0.0 | 0.0 | 0.00 | 0.00 | 0.00 | 87 | 1009.3 |
| 20260906081431 | 79 | 343 | 0.0 | 2.0 | 0.00 | 0.00 | 0.00 | 86 | 1010.1 |
| 20260906080928 | 79 | 343 | 0.0 | 2.0 | 0.00 | 0.00 | 0.00 | 86 | 1010.2 |
| 20260906080041 | 79 | 283 | 0.0 | 3.0 | 0.00 | 0.00 | 0.00 | 87 | 1009.4 |
| 20260906075914 | 79 | 341 | 1.0 | 3.0 | 0.00 | 0.00 | 0.00 | 86 | 1010.2 |
| 20260906075402 | 79 | 334 | 0.0 | 3.0 | 0.00 | 0.00 | 0.00 | 86 | 1010.2 |
| 20260906074855 | 79 | 332 | 0.0 | 2.0 | 0.00 | 0.00 | 0.00 | 86 | 1010.2 |
| 20260906074548 | 79 | 274 | 0.0 | 2.0 | 0.00 | 0.00 | 0.00 | 87 | 1009.2 |
| 20260906073841 | 79 | 331 | 0.0 | 2.0 | 0.00 | 0.00 | 0.00 | 86 | 1010.0 |
| 20260906073346 | 80 | 331 | 0.0 | 3.0 | 0.00 | 0.00 | 0.00 | 86 | 1010.0 |
| 20260906073037 | 79 | 273 | 0.0 | 3.0 | 0.00 | 0.00 | 0.00 | 86 | 1009.2 |
| 20260906072837 | 80 | 331 | 1.0 | 3.0 | 0.00 | 0.00 | 0.00 | 85 | 1010.1 |
| 20260906072331 | 80 | 331 | 1.0 | 3.0 | 0.00 | 0.00 | 0.00 | 85 | 1010.1 |
| 20260906071831 | 80 | 330 | 1.0 | 3.0 | 0.00 | 0.00 | 0.00 | 85 | 1010.2 |
| 20260906071537 | 79 | 271 | 0.0 | 3.0 | 0.00 | 0.00 | 0.00 | 86 | 1009.4 |
| 20260906071325 | 80 | 328 | 1.0 | 3.0 | 0.00 | 0.00 | 0.00 | 85 | 1010.3 |
| 20260906070812 | 80 | 326 | 0.0 | 3.0 | 0.00 | 0.00 | 0.00 | 85 | 1010.2 |
| 20260906070303 | 80 | 326 | 1.0 | 4.0 | 0.00 | 0.00 | 0.00 | 85 | 1010.2 |
| 20260906070033 | 80 | 268 | 0.0 | 4.0 | 0.00 | 0.00 | 0.00 | 86 | 1009.4 |
| 20260906065756 | 80 | 324 | 1.0 | 4.0 | 0.00 | 0.00 | 0.00 | 85 | 1010.4 |
| 20260906065258 | 80 | 341 | 0.0 | 1.0 | 0.00 | 0.00 | 0.00 | 85 | 1010.2 |
| 20260906064757 | 80 | 341 | 0.0 | 2.0 | 0.00 | 0.00 | 0.00 | 85 | 1010.3 |
| 20260906064533 | 80 | 283 | 0.0 | 2.0 | 0.00 | 0.00 | 0.00 | 86 | 1009.5 |
| 20260906064256 | 80 | 340 | 0.0 | 2.0 | 0.00 | 0.00 | 0.00 | 85 | 1010.4 |
| 20260906063752 | 80 | 340 | 0.0 | 2.0 | 0.00 | 0.00 | 0.00 | 85 | 1010.4 |
| 20260906063032 | 80 | 285 | 0.0 | 2.0 | 0.00 | 0.00 | 0.00 | 86 | 1009.6 |
| 20260906062247 | 80 | 185 | 0.0 | 2.0 | 0.00 | 0.00 | 0.00 | 85 | 1010.5 |
| 20260906061740 | 80 | 185 | 0.0 | 3.0 | 0.00 | 0.00 | 0.00 | 85 | 1010.4 |
| 20260906061531 | 80 | 127 | 0.0 | 3.0 | 0.00 | 0.00 | 0.00 | 86 | 1009.6 |
| 20260906061233 | 80 | 185 | 1.0 | 4.0 | 0.00 | 0.00 | 0.00 | 85 | 1010.3 |
| 20260906060725 | 80 | 152 | 0.0 | 4.0 | 0.00 | 0.00 | 0.00 | 85 | 1010.4 |
| 20260906060221 | 80 | 99 | 0.0 | 2.0 | 0.00 | 0.00 | 0.00 | 85 | 1010.5 |
| 20260906060033 | 80 | 152 | 0.0 | 0.0 | 0.00 | 0.00 | 0.00 | 86 | 1009.6 |
| 20260906055724 | 80 | 210 | 0.0 | 0.0 | 0.00 | 0.00 | 0.00 | 86 | 1010.5 |
| 20260906055218 | 80 | 205 | 0.0 | 0.0 | 0.00 | 0.00 | 0.00 | 86 | 1010.5 |
| 20260906054709 | 80 | 205 | 0.0 | 0.0 | 0.00 | 0.00 | 0.00 | 85 | 1010.5 |
| 20260906054531 | 80 | 147 | 0.0 | 0.0 | 0.00 | 0.00 | 0.00 | 86 | 1009.7 |
| 20260906053210 | 80 | 205 | 0.0 | 0.0 | 0.00 | 0.00 | 0.00 | 85 | 1010.7 |
| 20260906053032 | 80 | 147 | 0.0 | 0.0 | 0.00 | 0.00 | 0.00 | 86 | 1009.9 |
| 20260906052656 | 81 | 205 | 0.0 | 0.0 | 0.00 | 0.00 | 0.00 | 85 | 1010.8 |
| 20260906052148 | 81 | 205 | 0.0 | 0.0 | 0.00 | 0.00 | 0.00 | 85 | 1010.9 |
| 20260906051640 | 81 | 205 | 0.0 | 0.0 | 0.00 | 0.00 | 0.00 | 85 | 1010.8 |
| 20260906051526 | 80 | 147 | 0.0 | 0.0 | 0.00 | 0.00 | 0.00 | 86 | 1010.0 |
| 20260906051139 | 81 | 205 | 0.0 | 0.0 | 0.00 | 0.00 | 0.00 | 85 | 1010.9 |
| 20260906050643 | 81 | 205 | 0.0 | 0.0 | 0.00 | 0.00 | 0.00 | 85 | 1010.9 |
| 20260906050139 | 81 | 205 | 0.0 | 0.0 | 0.00 | 0.00 | 0.00 | 85 | 1010.9 |
| 20260906050033 | 81 | 147 | 0.0 | 0.0 | 0.00 | 0.00 | 0.00 | 86 | 1010.0 |
| 20260906045643 | 81 | 205 | 0.0 | 0.0 | 0.00 | 0.00 | 0.00 | 85 | 1010.8 |
| 20260906045135 | 81 | 205 | 0.0 | 0.0 | 0.00 | 0.00 | 0.00 | 85 | 1010.7 |
| 20260906044635 | 81 | 205 | 0.0 | 0.0 | 0.00 | 0.00 | 0.00 | 85 | 1010.8 |
| 20260906044534 | 81 | 147 | 0.0 | 0.0 | 0.00 | 0.00 | 0.00 | 86 | 1009.9 |
| 20260906044139 | 81 | 205 | 0.0 | 0.0 | 0.00 | 0.00 | 0.00 | 85 | 1010.8 |
| 20260906043632 | 81 | 205 | 0.0 | 1.0 | 0.00 | 0.00 | 0.00 | 85 | 1010.9 |
| 20260906043121 | 81 | 209 | 0.0 | 2.0 | 0.00 | 0.00 | 0.00 | 85 | 1010.9 |
| 20260906043022 | 80 | 151 | 0.0 | 2.0 | 0.00 | 0.00 | 0.00 | 86 | 1010.0 |
| 20260906042617 | 81 | 208 | 1.0 | 3.0 | 0.00 | 0.00 | 0.00 | 85 | 1011.0 |
| 20260906042104 | 81 | 209 | 1.0 | 3.0 | 0.00 | 0.00 | 0.00 | 85 | 1010.9 |
| 20260906041604 | 81 | 208 | 1.0 | 3.0 | 0.00 | 0.00 | 0.00 | 85 | 1010.8 |
| 20260906041521 | 80 | 147 | 0.0 | 2.0 | 0.00 | 0.00 | 0.00 | 86 | 1009.9 |
| 20260906040621 | 80 | 206 | 0.0 | 2.0 | 0.00 | 0.00 | 0.00 | 85 | 1011.0 |
| 20260906040105 | 80 | 206 | 0.0 | 0.0 | 0.00 | 0.00 | 0.00 | 85 | 1011.1 |
| 20260906040025 | 80 | 148 | 0.0 | 0.0 | 0.00 | 0.00 | 0.00 | 86 | 1010.3 |
| 20260906035546 | 81 | 206 | 0.0 | 1.0 | 0.00 | 0.00 | 0.00 | 85 | 1011.1 |
| 20260906035047 | 81 | 206 | 0.0 | 1.0 | 0.00 | 0.00 | 0.00 | 84 | 1011.2 |
| 20260906034546 | 81 | 206 | 0.0 | 2.0 | 0.00 | 0.00 | 0.00 | 84 | 1011.3 |
| 20260906034517 | 81 | 148 | 0.0 | 2.0 | 0.00 | 0.00 | 0.00 | 85 | 1010.4 |
| 20260906034049 | 81 | 206 | 0.0 | 2.0 | 0.00 | 0.00 | 0.00 | 84 | 1011.3 |
| 20260906033541 | 81 | 209 | 0.0 | 2.0 | 0.00 | 0.00 | 0.00 | 84 | 1011.4 |
| 20260906033036 | 81 | 201 | 0.0 | 0.0 | 0.00 | 0.00 | 0.00 | 84 | 1011.4 |
| 20260906033034 | 81 | 143 | 0.0 | 0.0 | 0.00 | 0.00 | 0.00 | 85 | 1010.6 |
| 20260906032537 | 81 | 201 | 0.0 | 0.0 | 0.00 | 0.00 | 0.00 | 84 | 1011.5 |
| 20260906032035 | 81 | 201 | 0.0 | 0.0 | 0.00 | 0.00 | 0.00 | 84 | 1011.5 |
| 20260906031524 | 81 | 201 | 0.0 | 0.0 | 0.00 | 0.00 | 0.00 | 84 | 1011.5 |
| 20260906031515 | 81 | 143 | 0.0 | 0.0 | 0.00 | 0.00 | 0.00 | 85 | 1010.7 |
| 20260906031011 | 81 | 201 | 0.0 | 0.0 | 0.00 | 0.00 | 0.00 | 84 | 1011.7 |
| 20260906030503 | 81 | 201 | 0.0 | 0.0 | 0.00 | 0.00 | 0.00 | 84 | 1011.6 |
| 20260906030015 | 81 | 143 | 0.0 | 0.0 | 0.00 | 0.00 | 0.00 | 85 | 1010.7 |
| 20260906025956 | 81 | 201 | 0.0 | 0.0 | 0.00 | 0.00 | 0.00 | 84 | 1011.6 |
| 20260906025451 | 81 | 201 | 0.0 | 0.0 | 0.00 | 0.00 | 0.00 | 84 | 1011.6 |
| 20260906024953 | 81 | 198 | 0.0 | 0.0 | 0.00 | 0.00 | 0.00 | 83 | 1011.7 |
| 20260906024516 | 81 | 140 | 0.0 | 0.0 | 0.00 | 0.00 | 0.00 | 84 | 1010.9 |
| 20260906024446 | 81 | 198 | 0.0 | 0.0 | 0.00 | 0.00 | 0.00 | 83 | 1011.7 |
| 20260906023937 | 82 | 198 | 0.0 | 0.0 | 0.00 | 0.00 | 0.00 | 83 | 1011.7 |
| 20260906023430 | 82 | 198 | 0.0 | 3.0 | 0.00 | 0.00 | 0.00 | 83 | 1011.7 |
| 20260906023015 | 81 | 140 | 0.0 | 3.0 | 0.00 | 0.00 | 0.00 | 84 | 1010.9 |
| 20260906022419 | 82 | 228 | 1.0 | 4.0 | 0.00 | 0.00 | 0.00 | 83 | 1011.7 |
| 20260906021918 | 82 | 228 | 2.0 | 4.0 | 0.00 | 0.00 | 0.00 | 83 | 1011.8 |
| 20260906021514 | 82 | 156 | 1.0 | 5.0 | 0.00 | 0.00 | 0.00 | 84 | 1011.0 |
| 20260906021414 | 82 | 220 | 1.0 | 4.0 | 0.00 | 0.00 | 0.00 | 83 | 1011.7 |
| 20260906020909 | 82 | 196 | 1.0 | 4.0 | 0.00 | 0.00 | 0.00 | 83 | 1011.8 |
| 20260906020013 | 82 | 158 | 0.0 | 3.0 | 0.00 | 0.00 | 0.00 | 84 | 1011.0 |
| 20260906015908 | 82 | 216 | 1.0 | 3.0 | 0.00 | 0.00 | 0.00 | 83 | 1011.8 |
| 20260906014513 | 82 | 157 | 0.0 | 3.0 | 0.00 | 0.00 | 0.00 | 85 | 1010.6 |
| 20260906014347 | 82 | 216 | 1.0 | 3.0 | 0.00 | 0.00 | 0.00 | 84 | 1011.4 |
| 20260906013836 | 82 | 212 | 1.0 | 4.0 | 0.00 | 0.00 | 0.00 | 84 | 1011.3 |
| 20260906013014 | 82 | 145 | 0.0 | 3.0 | 0.00 | 0.00 | 0.00 | 85 | 1010.4 |
| 20260906012821 | 82 | 219 | 0.0 | 1.0 | 0.00 | 0.00 | 0.00 | 84 | 1011.2 |
| 20260906012310 | 82 | 219 | 0.0 | 5.0 | 0.00 | 0.00 | 0.00 | 84 | 1011.1 |
| 20260906011801 | 83 | 221 | 1.0 | 5.0 | 0.00 | 0.00 | 0.00 | 84 | 1010.9 |
| 20260906011512 | 82 | 158 | 1.0 | 5.0 | 0.00 | 0.00 | 0.00 | 85 | 1010.0 |
| 20260906011302 | 83 | 205 | 1.0 | 3.0 | 0.00 | 0.00 | 0.00 | 84 | 1010.8 |
| 20260906010802 | 83 | 205 | 1.0 | 3.0 | 0.00 | 0.00 | 0.00 | 84 | 1010.9 |
| 20260906010257 | 83 | 199 | 1.0 | 3.0 | 0.00 | 0.00 | 0.00 | 83 | 1010.8 |
| 20260906010012 | 82 | 139 | 0.0 | 3.0 | 0.00 | 0.00 | 0.00 | 84 | 1010.0 |
| 20260906005236 | 83 | 193 | 1.0 | 4.0 | 0.00 | 0.00 | 0.00 | 83 | 1010.8 |
| 20260906004730 | 83 | 229 | 0.0 | 3.0 | 0.00 | 0.00 | 0.00 | 83 | 1010.9 |
| 20260906004512 | 82 | 171 | 0.0 | 2.0 | 0.00 | 0.00 | 0.00 | 84 | 1010.0 |
| 20260906004224 | 83 | 151 | 0.0 | 0.0 | 0.00 | 0.00 | 0.00 | 83 | 1010.9 |
| 20260906003011 | 83 | 93 | 0.0 | 4.0 | 0.00 | 0.00 | 0.00 | 84 | 1009.9 |
| 20260906002710 | 83 | 150 | 0.0 | 5.0 | 0.00 | 0.00 | 0.00 | 83 | 1010.7 |
| 20260906002217 | 83 | 209 | 1.0 | 3.0 | 0.00 | 0.00 | 0.00 | 82 | 1010.8 |
| 20260906001707 | 84 | 205 | 1.0 | 3.0 | 0.00 | 0.00 | 0.00 | 82 | 1010.7 |
| 20260906001509 | 83 | 147 | 1.0 | 3.0 | 0.00 | 0.00 | 0.00 | 83 | 1009.8 |
| 20260906000651 | 84 | 203 | 2.0 | 6.0 | 0.00 | 0.00 | 0.00 | 81 | 1010.7 |
| 20260906000152 | 84 | 207 | 2.0 | 5.0 | 0.00 | 0.00 | 0.00 | 81 | 1010.6 |
| 20260906000010 | 84 | 162 | 1.0 | 5.0 | 0.00 | 0.00 | 0.00 | 82 | 1009.7 |
| 20260905235646 | 84 | 207 | 2.0 | 5.0 | 0.00 | 0.00 | 0.00 | 81 | 1010.5 |
| 20260905235136 | 84 | 207 | 1.0 | 6.0 | 0.00 | 0.00 | 0.00 | 80 | 1010.5 |
| 20260905234638 | 85 | 232 | 2.0 | 6.0 | 0.00 | 0.00 | 0.00 | 80 | 1010.4 |
| 20260905234509 | 84 | 165 | 2.0 | 6.0 | 0.00 | 0.00 | 0.00 | 81 | 1009.6 |
| 20260905233620 | 85 | 166 | 1.0 | 4.0 | 0.00 | 0.00 | 0.00 | 80 | 1010.5 |
| 20260905233118 | 85 | 226 | 1.0 | 4.0 | 0.00 | 0.00 | 0.00 | 79 | 1010.5 |
| 20260905233008 | 85 | 169 | 2.0 | 5.0 | 0.00 | 0.00 | 0.00 | 80 | 1009.8 |
| 20260905232623 | 86 | 206 | 1.0 | 3.0 | 0.00 | 0.00 | 0.00 | 79 | 1010.5 |
| 20260905232114 | 86 | 201 | 2.0 | 4.0 | 0.00 | 0.00 | 0.00 | 79 | 1010.4 |
| 20260905231509 | 86 | 166 | 1.0 | 5.0 | 0.00 | 0.00 | 0.00 | 80 | 1009.6 |
| 20260905231114 | 86 | 189 | 3.0 | 7.0 | 0.00 | 0.00 | 0.00 | 78 | 1010.5 |
| 20260905230605 | 87 | 172 | 3.0 | 7.0 | 0.00 | 0.00 | 0.00 | 78 | 1010.5 |
| 20260905230111 | 86 | 239 | 1.0 | 7.0 | 0.00 | 0.00 | 0.00 | 77 | 1010.6 |
| 20260905230008 | 86 | 130 | 2.0 | 5.0 | 0.00 | 0.00 | 0.00 | 78 | 1009.7 |
| 20260905225052 | 87 | 359 | 0.0 | 0.0 | 0.00 | 0.00 | 0.00 | 76 | 1010.4 |
| 20260905224551 | 88 | 359 | 0.0 | 0.0 | 0.00 | 0.00 | 0.00 | 75 | 1010.4 |
| 20260905224507 | 88 | 301 | 0.0 | 0.0 | 0.00 | 0.00 | 0.00 | 76 | 1009.6 |
| 20260905224054 | 88 | 359 | 0.0 | 1.0 | 0.00 | 0.00 | 0.00 | 72 | 1010.4 |
| 20260905223552 | 89 | 359 | 0.0 | 1.0 | 0.00 | 0.00 | 0.00 | 72 | 1010.3 |
| 20260905223041 | 88 | 359 | 0.0 | 0.0 | 0.00 | 0.00 | 0.00 | 71 | 1010.4 |
| 20260905223007 | 88 | 301 | 0.0 | 0.0 | 0.00 | 0.00 | 0.00 | 73 | 1009.6 |
| 20260905222531 | 88 | 359 | 0.0 | 1.0 | 0.00 | 0.00 | 0.00 | 74 | 1010.5 |
| 20260905222021 | 88 | 359 | 1.0 | 2.0 | 0.00 | 0.00 | 0.00 | 76 | 1010.7 |
| 20260905221513 | 88 | 359 | 1.0 | 2.0 | 0.00 | 0.00 | 0.00 | 73 | 1010.7 |
| 20260905221506 | 87 | 301 | 0.0 | 2.0 | 0.00 | 0.00 | 0.00 | 74 | 1009.8 |
| 20260905221009 | 87 | 359 | 0.0 | 2.0 | 0.00 | 0.00 | 0.00 | 76 | 1010.8 |
| 20260905220508 | 87 | 359 | 0.0 | 0.0 | 0.00 | 0.00 | 0.00 | 77 | 1010.8 |
| 20260905220006 | 87 | 301 | 0.0 | 0.0 | 0.00 | 0.00 | 0.00 | 78 | 1010.1 |
| 20260905220002 | 87 | 359 | 0.0 | 0.0 | 0.00 | 0.00 | 0.00 | 77 | 1010.9 |
| 20260905215459 | 88 | 359 | 0.0 | 2.0 | 0.00 | 0.00 | 0.00 | 76 | 1010.9 |
| 20260905215001 | 88 | 359 | 0.0 | 3.0 | 0.00 | 0.00 | 0.00 | 72 | 1011.0 |
| 20260905214505 | 89 | 359 | 1.0 | 3.0 | 0.00 | 0.00 | 0.00 | 72 | 1011.0 |
| 20260905213442 | 88 | 359 | 1.0 | 3.0 | 0.00 | 0.00 | 0.00 | 72 | 1011.0 |
| 20260905213005 | 88 | 301 | 1.0 | 5.0 | 0.00 | 0.00 | 0.00 | 72 | 1010.0 |
| 20260905212943 | 89 | 359 | 1.0 | 5.0 | 0.00 | 0.00 | 0.00 | 72 | 1010.9 |
| 20260905212443 | 89 | 7 | 1.0 | 5.0 | 0.00 | 0.00 | 0.00 | 72 | 1010.9 |
| 20260905211504 | 89 | 322 | 2.0 | 6.0 | 0.00 | 0.00 | 0.00 | 71 | 1009.9 |
| 20260905211434 | 89 | 20 | 2.0 | 6.0 | 0.00 | 0.00 | 0.00 | 70 | 1010.7 |
| 20260905210927 | 89 | 341 | 3.0 | 5.0 | 0.00 | 0.00 | 0.00 | 71 | 1010.7 |
| 20260905210413 | 90 | 346 | 3.0 | 6.0 | 0.00 | 0.00 | 0.00 | 71 | 1010.6 |
| 20260905210003 | 89 | 310 | 4.0 | 7.0 | 0.00 | 0.00 | 0.00 | 70 | 1009.7 |
| 20260905205919 | 89 | 343 | 3.0 | 6.0 | 0.00 | 0.00 | 0.00 | 69 | 1010.6 |
| 20260905205410 | 89 | 336 | 2.0 | 8.0 | 0.00 | 0.00 | 0.00 | 70 | 1010.7 |
| 20260905204904 | 89 | 340 | 1.0 | 8.0 | 0.00 | 0.00 | 0.00 | 70 | 1010.6 |
| 20260905204507 | 90 | 195 | 1.0 | 3.0 | 0.00 | 0.73 | 0.00 | 70 | 1009.7 |
| 20260905204405 | 90 | 253 | 1.0 | 3.0 | 0.00 | 0.00 | 0.00 | 69 | 1010.5 |
| 20260905203905 | 90 | 286 | 2.0 | 6.0 | 0.00 | 0.01 | 0.00 | 70 | 1010.6 |
| 20260905203408 | 90 | 345 | 2.0 | 6.0 | 0.00 | 0.03 | 0.00 | 70 | 1010.5 |
| 20260905203003 | 89 | 293 | 2.0 | 7.0 | 0.00 | 0.73 | 0.00 | 71 | 1009.6 |
| 20260905202859 | 90 | 338 | 2.0 | 6.0 | 0.00 | 0.11 | 0.00 | 70 | 1010.5 |
| 20260905202353 | 90 | 347 | 3.0 | 6.0 | 0.00 | 0.27 | 0.00 | 70 | 1010.4 |
| 20260905201505 | 89 | 280 | 3.0 | 7.0 | 0.00 | 0.73 | 0.00 | 72 | 1009.6 |
| 20260905201348 | 90 | 351 | 2.0 | 6.0 | 0.00 | 0.73 | 0.00 | 70 | 1010.4 |
| 20260905200851 | 90 | 261 | 2.0 | 6.0 | 0.00 | 0.73 | 0.00 | 69 | 1010.5 |
| 20260905200338 | 90 | 290 | 4.0 | 10.0 | 0.00 | 0.73 | 0.00 | 69 | 1010.6 |
| 20260905195828 | 90 | 351 | 4.0 | 10.0 | 0.00 | 0.73 | 0.00 | 69 | 1010.7 |
| 20260905195318 | 90 | 341 | 2.0 | 6.0 | 0.00 | 0.74 | 0.00 | 69 | 1010.8 |
| 20260905194813 | 90 | 13 | 3.0 | 9.0 | 0.00 | 0.76 | 0.00 | 70 | 1010.8 |
| 20260905194558 | 89 | 278 | 2.0 | 10.0 | 0.00 | 0.85 | 0.00 | 71 | 1009.9 |
| 20260905194309 | 90 | 349 | 3.0 | 9.0 | 0.00 | 0.76 | 0.00 | 69 | 1010.9 |
| 20260905193813 | 90 | 328 | 3.0 | 8.0 | 0.00 | 0.80 | 0.00 | 70 | 1011.1 |
| 20260905193307 | 90 | 326 | 4.0 | 9.0 | 0.00 | 0.80 | 0.00 | 70 | 1011.0 |
| 20260905193056 | 89 | 295 | 1.0 | 10.0 | 0.00 | 0.85 | 0.00 | 70 | 1010.2 |
| 20260905192808 | 90 | 22 | 3.0 | 9.0 | 0.00 | 0.80 | 0.00 | 70 | 1011.1 |
| 20260905192305 | 90 | 336 | 3.0 | 7.0 | 0.00 | 0.81 | 0.00 | 70 | 1011.1 |
| 20260905191752 | 90 | 343 | 4.0 | 8.0 | 0.00 | 0.82 | 0.00 | 70 | 1011.2 |
| 20260905191554 | 89 | 298 | 2.0 | 9.0 | 0.00 | 0.85 | 0.00 | 71 | 1010.3 |
| 20260905191245 | 89 | 1 | 3.0 | 8.0 | 0.00 | 0.82 | 0.00 | 69 | 1011.2 |
| 20260905190052 | 89 | 301 | 2.0 | 9.0 | 0.00 | 0.85 | 0.00 | 72 | 1010.5 |
| 20260905185215 | 89 | 352 | 3.0 | 8.0 | 0.00 | 0.89 | 0.00 | 72 | 1011.4 |
| 20260905184716 | 88 | 355 | 4.0 | 10.0 | 0.00 | 0.91 | 0.00 | 72 | 1011.6 |
| 20260905184548 | 88 | 297 | 3.0 | 11.0 | 0.00 | 1.49 | 0.00 | 72 | 1010.8 |
| 20260905184210 | 88 | 354 | 5.0 | 10.0 | 0.00 | 0.96 | 0.00 | 72 | 1011.7 |
| 20260905183151 | 89 | 357 | 2.0 | 8.0 | 0.00 | 1.26 | 0.00 | 72 | 1011.8 |
| 20260905183050 | 88 | 65 | 1.0 | 7.0 | 0.00 | 1.49 | 0.00 | 72 | 1011.0 |
| 20260905182647 | 88 | 331 | 3.0 | 8.0 | 0.00 | 1.31 | 0.00 | 73 | 1011.8 |
| 20260905182155 | 88 | 343 | 4.0 | 8.0 | 0.00 | 1.45 | 0.00 | 74 | 1011.9 |
| 20260905181647 | 87 | 345 | 3.0 | 7.0 | 0.00 | 1.49 | 0.00 | 73 | 1012.0 |
| 20260905181602 | 87 | 301 | 3.0 | 8.0 | 0.00 | 1.49 | 0.00 | 74 | 1011.1 |
| 20260905181140 | 88 | 359 | 4.0 | 8.0 | 0.00 | 1.49 | 0.00 | 74 | 1012.0 |
| 20260905180630 | 87 | 337 | 4.0 | 8.0 | 0.00 | 1.49 | 0.00 | 74 | 1012.1 |
| 20260905180124 | 87 | 344 | 3.0 | 8.0 | 0.00 | 1.49 | 0.00 | 74 | 1012.2 |
| 20260905180043 | 87 | 327 | 3.0 | 9.0 | 0.00 | 1.49 | 0.00 | 75 | 1011.3 |
| 20260905175612 | 87 | 351 | 4.0 | 8.0 | 0.00 | 1.49 | 0.00 | 73 | 1012.3 |
| 20260905174549 | 87 | 311 | 2.0 | 8.0 | 0.00 | 1.49 | 0.00 | 74 | 1011.5 |
| 20260905174044 | 87 | 345 | 3.0 | 7.0 | 0.00 | 1.49 | 0.00 | 74 | 1012.5 |
| 20260905173543 | 87 | 345 | 2.0 | 7.0 | 0.00 | 1.49 | 0.00 | 74 | 1012.5 |
| 20260905173042 | 87 | 326 | 2.0 | 5.0 | 0.00 | 1.49 | 0.00 | 76 | 1012.6 |
| 20260905172534 | 86 | 345 | 1.0 | 4.0 | 0.00 | 1.49 | 0.00 | 75 | 1012.6 |
| 20260905172036 | 86 | 356 | 2.0 | 7.0 | 0.00 | 1.49 | 0.00 | 78 | 1012.8 |
| 20260905171543 | 85 | 300 | 1.0 | 8.0 | 0.00 | 1.49 | 0.00 | 79 | 1012.1 |
| 20260905171532 | 85 | 347 | 2.0 | 7.0 | 0.00 | 1.49 | 0.00 | 78 | 1012.9 |
| 20260905170525 | 86 | 349 | 2.0 | 5.0 | 0.00 | 1.49 | 0.00 | 76 | 1013.1 |
| 20260905170037 | 86 | 296 | 1.0 | 7.0 | 0.00 | 1.49 | 0.00 | 77 | 1012.3 |
| 20260905170020 | 87 | 354 | 2.0 | 6.0 | 0.00 | 1.49 | 0.00 | 76 | 1013.2 |
| 20260905165520 | 85 | 342 | 3.0 | 7.0 | 0.00 | 1.49 | 0.00 | 78 | 1013.3 |
| 20260905165015 | 85 | 341 | 3.0 | 7.0 | 0.00 | 1.49 | 0.00 | 77 | 1013.4 |
| 20260905164537 | 85 | 311 | 1.0 | 7.0 | 0.00 | 1.49 | 0.00 | 78 | 1012.6 |
| 20260905164502 | 86 | 87 | 2.0 | 6.0 | 0.00 | 1.49 | 0.00 | 77 | 1013.4 |
| 20260905163957 | 86 | 336 | 3.0 | 7.0 | 0.00 | 1.49 | 0.00 | 77 | 1013.5 |
| 20260905163450 | 86 | 346 | 2.0 | 7.0 | 0.00 | 1.49 | 0.00 | 77 | 1013.6 |
| 20260905163035 | 85 | 282 | 1.0 | 7.0 | 0.00 | 1.49 | 0.00 | 79 | 1012.8 |
| 20260905162446 | 85 | 276 | 2.0 | 7.0 | 0.00 | 1.49 | 0.00 | 77 | 1013.7 |
| 20260905161532 | 85 | 314 | 1.0 | 8.0 | 0.00 | 1.49 | 0.00 | 79 | 1013.0 |
| 20260905161427 | 85 | 12 | 3.0 | 7.0 | 0.00 | 1.49 | 0.00 | 78 | 1013.8 |
| 20260905160421 | 85 | 346 | 3.0 | 7.0 | 0.00 | 1.49 | 0.00 | 78 | 1013.9 |
| 20260905160055 | 84 | 293 | 2.0 | 5.0 | 0.00 | 1.49 | 0.00 | 79 | 1013.2 |
| 20260905155920 | 85 | 348 | 2.0 | 6.0 | 0.00 | 1.49 | 0.00 | 78 | 1014.0 |
| 20260905155421 | 85 | 357 | 2.0 | 6.0 | 0.00 | 1.49 | 0.00 | 78 | 1014.0 |
| 20260905154913 | 85 | 356 | 2.0 | 6.0 | 0.00 | 1.49 | 0.00 | 78 | 1014.1 |
| 20260905154529 | 84 | 305 | 2.0 | 9.0 | 0.00 | 1.49 | 0.00 | 80 | 1013.2 |
| 20260905154406 | 84 | 358 | 3.0 | 10.0 | 0.00 | 1.49 | 0.00 | 78 | 1014.1 |
| 20260905153855 | 84 | 338 | 3.0 | 10.0 | 0.00 | 1.49 | 0.00 | 79 | 1014.0 |
| 20260905153353 | 84 | 10 | 3.0 | 8.0 | 0.00 | 1.49 | 0.00 | 81 | 1014.1 |
| 20260905153027 | 83 | 291 | 4.0 | 9.0 | 0.00 | 1.49 | 0.00 | 81 | 1013.4 |
| 20260905152854 | 83 | 353 | 2.0 | 8.0 | 0.00 | 1.49 | 0.00 | 80 | 1014.2 |
| 20260905152347 | 83 | 357 | 1.0 | 6.0 | 0.00 | 1.49 | 0.00 | 79 | 1014.3 |
| 20260905151839 | 84 | 323 | 1.0 | 6.0 | 0.00 | 1.49 | 0.00 | 79 | 1014.4 |
| 20260905151527 | 84 | 32 | 0.0 | 6.0 | 0.00 | 1.49 | 0.00 | 81 | 1013.5 |
| 20260905151338 | 84 | 351 | 2.0 | 6.0 | 0.00 | 1.49 | 0.00 | 80 | 1014.4 |
| 20260905150335 | 83 | 320 | 3.0 | 8.0 | 0.00 | 1.49 | 0.00 | 80 | 1014.4 |
| 20260905150022 | 82 | 299 | 4.0 | 9.0 | 0.00 | 1.49 | 0.00 | 82 | 1013.6 |
| 20260905145832 | 83 | 8 | 2.0 | 6.0 | 0.00 | 1.49 | 0.00 | 81 | 1014.4 |
| 20260905145326 | 83 | 3 | 1.0 | 6.0 | 0.00 | 1.49 | 0.00 | 81 | 1014.5 |
| 20260905144826 | 82 | 330 | 2.0 | 7.0 | 0.00 | 1.49 | 0.00 | 81 | 1014.5 |
| 20260905144520 | 82 | 276 | 1.0 | 8.0 | 0.00 | 1.49 | 0.00 | 83 | 1013.6 |
| 20260905143823 | 82 | 1 | 2.0 | 6.0 | 0.00 | 1.49 | 0.00 | 83 | 1014.4 |
| 20260905143325 | 81 | 257 | 3.0 | 8.0 | 0.00 | 1.49 | 0.00 | 83 | 1014.3 |
| 20260905143016 | 81 | 264 | 2.0 | 9.0 | 0.00 | 1.49 | 0.00 | 84 | 1013.6 |
| 20260905142821 | 81 | 335 | 2.0 | 8.0 | 0.00 | 1.49 | 0.00 | 83 | 1014.4 |
| 20260905142307 | 81 | 353 | 1.0 | 5.0 | 0.00 | 1.49 | 0.00 | 84 | 1014.3 |
| 20260905141805 | 81 | 311 | 1.0 | 4.0 | 0.00 | 1.49 | 0.00 | 85 | 1014.4 |
| 20260905141511 | 80 | 253 | 0.0 | 5.0 | 0.00 | 1.49 | 0.00 | 87 | 1013.5 |
| 20260905141317 | 80 | 207 | 1.0 | 5.0 | 0.00 | 1.49 | 0.00 | 86 | 1014.5 |
| 20260905140250 | 79 | 313 | 3.0 | 11.0 | 0.00 | 1.49 | 0.00 | 88 | 1014.5 |
| 20260905140008 | 79 | 255 | 2.0 | 12.0 | 0.00 | 1.49 | 0.00 | 89 | 1013.6 |
| 20260905135739 | 78 | 355 | 4.0 | 11.0 | 0.00 | 1.49 | 0.00 | 89 | 1014.5 |
| 20260905135244 | 78 | 336 | 2.0 | 6.0 | 0.00 | 1.49 | 0.00 | 89 | 1014.5 |
| 20260905134509 | 77 | 294 | 1.0 | 9.0 | 0.00 | 1.49 | 0.00 | 91 | 1013.6 |
| 20260905133243 | 77 | 163 | 2.0 | 7.0 | 0.00 | 1.49 | 0.00 | 90 | 1014.4 |
| 20260905133005 | 76 | 110 | 0.0 | 8.0 | 0.00 | 1.49 | 0.00 | 91 | 1013.7 |
| 20260905132744 | 77 | 318 | 1.0 | 7.0 | 0.00 | 1.49 | 0.00 | 90 | 1014.6 |
| 20260905132235 | 76 | 332 | 1.0 | 3.0 | 0.00 | 1.49 | 0.00 | 90 | 1014.5 |
| 20260905131723 | 76 | 350 | 2.0 | 6.0 | 0.00 | 1.49 | 0.00 | 90 | 1014.6 |
| 20260905131500 | 76 | 292 | 0.0 | 6.0 | 0.00 | 1.49 | 0.00 | 91 | 1013.9 |
| 20260905130703 | 76 | 8 | 2.0 | 6.0 | 0.00 | 1.49 | 0.00 | 90 | 1014.5 |
| 20260905130204 | 76 | 351 | 2.0 | 5.0 | 0.00 | 1.49 | 0.00 | 91 | 1014.5 |
| 20260905130100 | 76 | 293 | 1.0 | 5.0 | 0.00 | 1.49 | 0.00 | 91 | 1013.7 |
| 20260905125654 | 76 | 351 | 2.0 | 5.0 | 0.00 | 1.49 | 0.00 | 91 | 1014.5 |
| 20260905125153 | 76 | 357 | 3.0 | 4.0 | 0.00 | 1.49 | 0.00 | 91 | 1014.6 |
| 20260905124654 | 76 | 359 | 2.0 | 4.0 | 0.00 | 1.49 | 0.00 | 91 | 1014.4 |
| 20260905124557 | 75 | 285 | 2.0 | 4.0 | 0.00 | 1.49 | 0.00 | 92 | 1013.6 |
| 20260905124153 | 76 | 349 | 1.0 | 4.0 | 0.00 | 1.49 | 0.00 | 91 | 1014.3 |
| 20260905123642 | 76 | 351 | 2.0 | 4.0 | 0.00 | 1.49 | 0.00 | 91 | 1014.2 |
| 20260905123133 | 76 | 355 | 1.0 | 4.0 | 0.00 | 1.49 | 0.00 | 91 | 1014.2 |
| 20260905123056 | 75 | 297 | 2.0 | 4.0 | 0.00 | 1.49 | 0.00 | 92 | 1013.3 |
| 20260905122625 | 76 | 359 | 1.0 | 3.0 | 0.00 | 1.49 | 0.00 | 91 | 1014.2 |
| 20260905122115 | 76 | 359 | 1.0 | 4.0 | 0.00 | 1.49 | 0.00 | 90 | 1014.1 |
| 20260905121606 | 75 | 1 | 2.0 | 4.0 | 0.00 | 1.49 | 0.00 | 90 | 1014.0 |
| 20260905121555 | 75 | 303 | 2.0 | 4.0 | 0.00 | 1.49 | 0.00 | 91 | 1013.2 |
| 20260905120548 | 76 | 308 | 1.0 | 3.0 | 0.00 | 1.49 | 0.00 | 90 | 1013.8 |
| 20260905120113 | 75 | 222 | 1.0 | 3.0 | 0.00 | 1.49 | 0.00 | 91 | 1013.0 |
| 20260905120039 | 75 | 280 | 1.0 | 3.0 | 0.00 | 1.49 | 0.00 | 90 | 1013.8 |